ADDS METAR Data INFO
IDs: Format: Raw Decoded Include TAF

Data at: 1036 UTC 18 Aug 2017

KLHB 181015Z AUTO 15003KT 10SM OVC014 25/24 A3001 RMK AO2 T02460241
KLHB 180955Z AUTO 00000KT 10SM OVC014 25/24 A3001 RMK AO2 T02460237
KLHB 180935Z AUTO 00000KT 10SM BKN014 24/24 A3001 RMK AO2 T02420235
KLHB 180915Z AUTO 00000KT 10SM CLR 24/23 A3001 RMK AO2 T02400232
KLHB 180855Z AUTO 00000KT 10SM CLR 24/23 A3001 RMK AO2 T02420231
KLHB 180835Z AUTO 00000KT 10SM CLR 25/23 A3001 RMK AO2 T02460232
KLHB 180815Z AUTO 00000KT 10SM CLR 25/23 A3001 RMK AO2 T02460231
KLHB 180755Z AUTO 00000KT 10SM CLR 25/23 A3001 RMK AO2 T02510231
KLHB 180735Z AUTO 13003KT 10SM CLR 26/23 A3001 RMK AO2 T02560230
KLHB 180715Z AUTO 15005KT 10SM CLR 26/23 A3000 RMK AO2 T02570230
KLHB 180655Z AUTO 13005KT 10SM CLR 26/23 A3000 RMK AO2 T02600229
KLHB 180635Z AUTO 13004KT 10SM CLR 26/23 A3001 RMK AO2 T02600228
KLHB 180615Z AUTO 13004KT 10SM CLR 26/23 A3001 RMK AO2 T02610227
KLHB 180555Z AUTO 00000KT 10SM CLR 26/23 A3001 RMK AO2 T02630225 10349 20246 403620246
KLHB 180535Z AUTO 15005KT 10SM CLR 26/22 A3002 RMK AO2 T02600222
KLHB 180515Z AUTO 16004KT 10SM CLR 26/22 A3002 RMK AO2 T02560220
KLHB 180455Z AUTO 16003KT 10SM CLR 25/22 A3002 RMK AO2 T02500222
KLHB 180435Z AUTO 19003KT 10SM CLR 25/22 A3003 RMK AO2 T02490221
KLHB 180415Z AUTO 00000KT 10SM CLR 26/22 A3002 RMK AO2 T02600218
KLHB 180355Z AUTO 00000KT 10SM CLR 26/22 A3002 RMK AO2 T02640216
KLHB 180335Z AUTO 27003KT 10SM CLR 27/21 A3002 RMK AO2 T02720214
KLHB 180315Z AUTO 30005KT 10SM SCT065 29/21 A3002 RMK AO2 T02870213
KLHB 180255Z AUTO 31013KT 10SM SCT065 SCT080 BKN090 29/21 A3001 RMK AO2 T02940214
KLHB 180235Z AUTO 00000KT 10SM SCT080 30/22 A2999 RMK AO2 T03020221
KLHB 180215Z AUTO 14005KT 10SM CLR 31/22 A2998 RMK AO2 LTG DSNT N AND NW T03050221
KLHB 180155Z AUTO 14006KT 10SM CLR 31/22 A2998 RMK AO2 T03060221
KLHB 180135Z AUTO 13003KT 10SM SCT080 32/22 A2998 RMK AO2 LTG DSNT NW T03170220
KLHB 180115Z AUTO 12003KT 10SM SCT080 32/22 A2997 RMK AO2 T03200218
KLHB 180055Z AUTO 12003KT 10SM CLR 33/22 A2996 RMK AO2 T03270217
KLHB 180035Z AUTO 14004KT 10SM CLR 33/22 A2995 RMK AO2 T03310218
KLHB 180015Z AUTO 13006KT 10SM SCT070 34/22 A2994 RMK AO2 LTG DSNT W T03420219
KLHB 172355Z AUTO 14005KT 10SM SCT070 35/21 A2993 RMK AO2 LTG DSNT NW T03500213 10362 20335
KLHB 172335Z AUTO 18008KT 10SM CLR 35/20 A2992 RMK AO2 LTG DSNT NW T03520204
KLHB 172315Z AUTO 16007KT 10SM CLR 35/20 A2992 RMK AO2 LTG DSNT NW T03500199
KLHB 172255Z AUTO 15008KT 10SM SCT070 36/21 A2992 RMK AO2 T03580206
KLHB 172235Z AUTO 13007KT 10SM SCT070 36/21 A2992 RMK AO2 T03580213
KLHB 172215Z AUTO 13006KT 10SM SCT070 36/22 A2993 RMK AO2 T03620216
KLHB 172155Z AUTO 17007KT 10SM SCT070 36/21 A2994 RMK AO2 LTG DSNT W T03590208
KLHB 172135Z AUTO 16009KT 10SM CLR 36/21 A2995 RMK AO2 T03560210
KLHB 172115Z AUTO 18006KT 10SM SCT060 36/21 A2996 RMK AO2 T03570208
KLHB 172055Z AUTO 13003KT 10SM SCT060 35/21 A2997 RMK AO2 T03530213
KLHB 172035Z AUTO 15004KT 10SM CLR 36/22 A2997 RMK AO2 T03560216
KLHB 172015Z AUTO 13007KT 10SM SCT090 35/21 A2998 RMK AO2 T03540213
KLHB 171955Z AUTO 19007KT 10SM SCT090 35/21 A3000 RMK AO2 T03470214
KLHB 171935Z AUTO 22005KT 10SM CLR 35/22 A3001 RMK AO2 T03530219
KLHB 171915Z AUTO 19007KT 160V220 10SM CLR 35/22 A3002 RMK AO2 T03480219
KLHB 171855Z AUTO 18009KT 10SM CLR 35/22 A3003 RMK AO2 T03460223
KLHB 171835Z AUTO 16008KT 10SM CLR 34/22 A3003 RMK AO2 T03410222
KLHB 171815Z AUTO 19008KT 10SM CLR 34/23 A3004 RMK AO2 T03410227
KLHB 171755Z AUTO 21008KT 10SM SCT090 33/22 A3005 RMK AO2 T03340224 10334 20260
KLHB 171730Z AUTO 19011G15KT 10SM SCT090 33/23 A3005 RMK AO2 LTG DSNT NE T03260226
KLHB 171715Z AUTO 20011G17KT 10SM SCT037 33/23 A3005 RMK AO2 T03260229
KLHB 171655Z AUTO 19010G15KT 10SM SCT035 32/24 A3005 RMK AO2 LTG DSNT NE T03240235
KLHB 171635Z AUTO 19012KT 10SM SCT033 31/24 A3005 RMK AO2 LTG DSNT N T03120236
KLHB 171615Z AUTO 18012G17KT 10SM BKN033 32/24 A3005 RMK AO2 LTG DSNT N AND NE T03180238
KLHB 171555Z AUTO 19010G15KT 10SM SCT029 31/24 A3006 RMK AO2 LTG DSNT N T03100244
KLHB 171535Z AUTO 20010KT 10SM BKN025 BKN032 30/24 A3006 RMK AO2 LTG DSNT N T02960244
KLHB 171515Z AUTO 20008KT 10SM BKN025 30/25 A3006 RMK AO2 T02990251
KLHB 171450Z AUTO 19010KT 10SM BKN021 BKN028 29/25 A3005 RMK AO2 T02890250
KLHB 171435Z AUTO 19010G16KT 10SM BKN021 BKN027 29/25 A3004 RMK AO2 T02890250
KLHB 171415Z AUTO 19010G17KT 10SM BKN019 OVC024 29/25 A3004 RMK AO2 T02850253
KLHB 171350Z AUTO 19008KT 10SM BKN017 28/26 A3004 RMK AO2 T02800257
KLHB 171335Z AUTO 19006KT 10SM BKN017 28/26 A3004 RMK AO2 T02770259
KLHB 171315Z AUTO 17004KT 10SM SCT017 28/26 A3003 RMK AO2 T02750260
KLHB 171255Z AUTO 00000KT 10SM SCT017 27/26 A3003 RMK AO2 T02680259
KLHB 171235Z AUTO 16005KT 10SM CLR 26/26 A3002 RMK AO2 T02630256
KLHB 171215Z AUTO 16005KT 10SM CLR 26/26 A3001 RMK AO2 T02600255
KLHB 171155Z AUTO 15005KT 10SM CLR 26/26 A3001 RMK AO2 T02600256 10276 20260
KLHB 171135Z AUTO 15004KT 10SM SCT021 26/26 A3000 RMK AO2 T02630255
KLHB 171115Z AUTO 14005KT 10SM SCT023 27/26 A3001 RMK AO2 T02650256
KLHB 171055Z AUTO 15005KT 10SM SCT023 SCT027 27/26 A3000 RMK AO2 T02650255
KLHB 171035Z AUTO 15006KT 10SM CLR 27/26 A3001 RMK AO2 T02670255
KLHB 171015Z AUTO 17006KT 10SM SCT025 SCT036 27/25 A3001 RMK AO2 T02700252
KLHB 170955Z AUTO 16008KT 10SM SCT025 BKN030 OVC036 27/25 A3000 RMK AO2 T02730252
KLHB 170930Z AUTO 17008KT 10SM BKN023 BKN029 OVC036 27/25 A3000 RMK AO2 LTG DSNT NW T02730252
KLHB 170915Z AUTO 17008KT 10SM BKN021 BKN029 OVC034 27/25 A3000 RMK AO2 T02740252
KLHB 170855Z AUTO 16005KT 10SM BKN021 BKN031 27/25 A3000 RMK AO2 T02720253
KLHB 170835Z AUTO 16009KT 10SM OVC023 28/26 A3000 RMK AO2 T02750255
KLHB 170815Z AUTO 16009G14KT 10SM BKN021 OVC028 28/26 A2999 RMK AO2 T02750255
KLHB 170755Z AUTO 16008KT 10SM BKN020 OVC025 28/26 A2999 RMK AO2 T02750255
KLHB 170735Z AUTO 16009KT 10SM OVC020 28/26 A2998 RMK AO2 T02750255
KLHB 170715Z AUTO 17007KT 10SM OVC020 28/25 A2998 RMK AO2 T02750254
KLHB 170655Z AUTO 15008KT 10SM OVC022 27/25 A2997 RMK AO2 T02730251
KLHB 170635Z AUTO 15009KT 10SM BKN020 27/25 A2998 RMK AO2 T02730249
KLHB 170615Z AUTO 16007KT 10SM BKN022 27/25 A2998 RMK AO2 T02740245
KLHB 170555Z AUTO 15007KT 10SM BKN022 28/24 A2997 RMK AO2 LTG DSNT N T02750241 10343 20275 403640248
KLHB 170535Z AUTO 15006KT 10SM SCT024 28/24 A2997 RMK AO2 T02750240
KLHB 170515Z AUTO 15006KT 10SM CLR 28/24 A2997 RMK AO2 T02750238
KLHB 170455Z AUTO 14005KT 10SM CLR 28/23 A2997 RMK AO2 T02760234
KLHB 170435Z AUTO 13006KT 10SM CLR 28/23 A2996 RMK AO2 T02770231
KLHB 170415Z AUTO 13005KT 10SM CLR 28/23 A2995 RMK AO2 T02810228
KLHB 170355Z AUTO 14007KT 10SM CLR 29/23 A2995 RMK AO2 T02850225
KLHB 170335Z AUTO 14006KT 10SM CLR 29/22 A2995 RMK AO2 T02890221
KLHB 170315Z AUTO 14007KT 10SM CLR 29/22 A2994 RMK AO2 T02940217
KLHB 170255Z AUTO 14007KT 10SM CLR 30/22 A2994 RMK AO2 LTG DSNT SW T02960216
KLHB 170235Z AUTO 14008KT 10SM CLR 30/22 A2993 RMK AO2 T03010215
KLHB 170215Z AUTO 14010KT 10SM CLR 31/22 A2993 RMK AO2 T03050217
KLHB 170155Z AUTO 14009KT 10SM CLR 31/22 A2992 RMK AO2 T03100220
KLHB 170140Z AUTO 14007KT 10SM CLR 31/22 A2992 RMK AO2 T03130220
KLHB 170115Z AUTO 14010G14KT 10SM CLR 32/22 A2991 RMK AO2 T03190222
KLHB 170055Z AUTO 14010G15KT 10SM CLR 33/22 A2989 RMK AO2 T03250222
KLHB 170035Z AUTO 14012G16KT 10SM CLR 33/22 A2989 RMK AO2 T03300222
KLHB 170015Z AUTO 14012G16KT 10SM SCT085 34/23 A2988 RMK AO2 T03370226
KLHB 162355Z AUTO 14010G17KT 10SM SCT085 34/23 A2988 RMK AO2 T03440226 10364 20326
KLHB 162335Z AUTO 14009G15KT 10SM SCT080 35/23 A2988 RMK AO2 T03460230
KLHB 162315Z AUTO 14011G17KT 10SM SCT065 BKN080 34/23 A2989 RMK AO2 T03430227
KLHB 162255Z AUTO 13010G15KT 10SM BKN065 35/23 A2988 RMK AO2 T03530229